Ashmont, Canada
Current Conditions -  °F | °C
As of 3:00 PM on Sunday 23 Nov 2014 (Local Time) from CYOD Reporting Station
Few Clouds Few Clouds  
Wind Chill: 14°   Ceiling: Unl
Heat Index: 14°   Visibility: 15mi
Dew Point:   Wind: 2mph
Humidity: 79%   Direction: 200°SSW
Pressure: 29.76"   Gusts: NA
Location:  54.13°N, 111.57°W
Report Text: CYOD 232200Z 20002KT 15SM FEW015 FEW250 M10/M13 A2976 RMKSC1CI1 SLP119
Loading
Personal Weather Stations






























Interactive Weather Map New forecast layout! Learn more

10-Day Weather Forecast

Advertisements
Track Severe Weather on mobile